sensor_id;sensor_type;location;lat;lon;timestamp;temperature;humidity
73360;DHT22;63092;43.582;19.528;2023-04-15T00:00:42;9.50;94.90
73360;DHT22;63092;43.582;19.528;2023-04-15T00:03:07;9.50;94.90
73360;DHT22;63092;43.582;19.528;2023-04-15T00:05:33;9.50;95.10
73360;DHT22;63092;43.582;19.528;2023-04-15T00:08:00;9.60;95.30
73360;DHT22;63092;43.582;19.528;2023-04-15T00:10:26;9.60;95.10
73360;DHT22;63092;43.582;19.528;2023-04-15T00:12:52;9.40;95.40
73360;DHT22;63092;43.582;19.528;2023-04-15T00:15:18;9.40;95.30
73360;DHT22;63092;43.582;19.528;2023-04-15T00:17:44;9.40;95.50
73360;DHT22;63092;43.582;19.528;2023-04-15T00:20:10;9.40;95.70
73360;DHT22;63092;43.582;19.528;2023-04-15T00:22:36;9.40;96.00
73360;DHT22;63092;43.582;19.528;2023-04-15T00:25:02;9.40;95.70
73360;DHT22;63092;43.582;19.528;2023-04-15T00:27:28;9.30;96.20
73360;DHT22;63092;43.582;19.528;2023-04-15T00:29:54;9.40;95.80
73360;DHT22;63092;43.582;19.528;2023-04-15T00:32:20;9.40;95.70
73360;DHT22;63092;43.582;19.528;2023-04-15T00:34:46;9.40;95.70
73360;DHT22;63092;43.582;19.528;2023-04-15T00:37:12;9.40;95.80
73360;DHT22;63092;43.582;19.528;2023-04-15T00:39:38;9.40;95.60
73360;DHT22;63092;43.582;19.528;2023-04-15T00:42:03;9.50;95.80
73360;DHT22;63092;43.582;19.528;2023-04-15T00:44:30;9.50;95.80
73360;DHT22;63092;43.582;19.528;2023-04-15T00:46:56;9.50;95.40
73360;DHT22;63092;43.582;19.528;2023-04-15T00:49:22;9.50;95.40
73360;DHT22;63092;43.582;19.528;2023-04-15T00:51:48;9.40;95.40
73360;DHT22;63092;43.582;19.528;2023-04-15T00:54:14;9.40;95.50
73360;DHT22;63092;43.582;19.528;2023-04-15T00:56:41;9.40;95.50
73360;DHT22;63092;43.582;19.528;2023-04-15T00:59:07;9.40;95.40
73360;DHT22;63092;43.582;19.528;2023-04-15T01:01:34;9.30;95.50
73360;DHT22;63092;43.582;19.528;2023-04-15T01:04:01;9.30;95.50
73360;DHT22;63092;43.582;19.528;2023-04-15T01:06:27;9.30;95.40
73360;DHT22;63092;43.582;19.528;2023-04-15T01:08:54;9.30;95.70
73360;DHT22;63092;43.582;19.528;2023-04-15T01:11:20;9.20;95.50
73360;DHT22;63092;43.582;19.528;2023-04-15T01:13:48;9.30;95.30
73360;DHT22;63092;43.582;19.528;2023-04-15T01:16:14;9.30;95.70
73360;DHT22;63092;43.582;19.528;2023-04-15T01:18:41;9.00;95.90
73360;DHT22;63092;43.582;19.528;2023-04-15T01:21:07;9.10;96.00
73360;DHT22;63092;43.582;19.528;2023-04-15T01:23:35;9.10;96.00
73360;DHT22;63092;43.582;19.528;2023-04-15T01:26:02;9.00;96.30
73360;DHT22;63092;43.582;19.528;2023-04-15T01:28:28;9.10;96.20
73360;DHT22;63092;43.582;19.528;2023-04-15T01:31:13;9.10;95.90
73360;DHT22;63092;43.582;19.528;2023-04-15T01:33:41;9.10;96.10
73360;DHT22;63092;43.582;19.528;2023-04-15T01:36:08;8.90;96.30
73360;DHT22;63092;43.582;19.528;2023-04-15T01:38:35;8.90;96.30
73360;DHT22;63092;43.582;19.528;2023-04-15T01:41:01;8.90;96.20
73360;DHT22;63092;43.582;19.528;2023-04-15T01:43:29;8.80;96.40
73360;DHT22;63092;43.582;19.528;2023-04-15T01:45:55;8.70;96.60
73360;DHT22;63092;43.582;19.528;2023-04-15T01:48:21;8.60;96.90
73360;DHT22;63092;43.582;19.528;2023-04-15T01:50:47;8.70;96.90
73360;DHT22;63092;43.582;19.528;2023-04-15T01:53:13;8.60;97.00
73360;DHT22;63092;43.582;19.528;2023-04-15T01:55:40;8.70;97.00
73360;DHT22;63092;43.582;19.528;2023-04-15T02:00:32;8.50;97.30
73360;DHT22;63092;43.582;19.528;2023-04-15T02:02:58;8.60;97.30
73360;DHT22;63092;43.582;19.528;2023-04-15T02:05:24;8.50;97.50
73360;DHT22;63092;43.582;19.528;2023-04-15T02:07:50;8.60;97.60
73360;DHT22;63092;43.582;19.528;2023-04-15T02:10:16;8.50;97.80
73360;DHT22;63092;43.582;19.528;2023-04-15T02:12:42;8.30;98.30
73360;DHT22;63092;43.582;19.528;2023-04-15T02:17:35;8.20;98.30
73360;DHT22;63092;43.582;19.528;2023-04-15T02:20:02;8.30;98.80
73360;DHT22;63092;43.582;19.528;2023-04-15T02:22:30;8.20;98.80
73360;DHT22;63092;43.582;19.528;2023-04-15T02:24:56;8.30;98.70
73360;DHT22;63092;43.582;19.528;2023-04-15T02:27:22;8.40;98.40
73360;DHT22;63092;43.582;19.528;2023-04-15T02:29:47;8.30;98.80
73360;DHT22;63092;43.582;19.528;2023-04-15T02:32:15;8.40;98.60
73360;DHT22;63092;43.582;19.528;2023-04-15T02:34:41;8.40;98.10
73360;DHT22;63092;43.582;19.528;2023-04-15T02:37:11;8.40;97.90
73360;DHT22;63092;43.582;19.528;2023-04-15T02:39:37;8.40;98.10
73360;DHT22;63092;43.582;19.528;2023-04-15T02:42:03;8.40;98.10
73360;DHT22;63092;43.582;19.528;2023-04-15T02:44:31;8.30;98.20
73360;DHT22;63092;43.582;19.528;2023-04-15T02:46:57;8.30;98.30
73360;DHT22;63092;43.582;19.528;2023-04-15T02:49:24;8.40;98.30
73360;DHT22;63092;43.582;19.528;2023-04-15T02:51:50;8.30;98.30
73360;DHT22;63092;43.582;19.528;2023-04-15T02:54:19;8.40;98.40
73360;DHT22;63092;43.582;19.528;2023-04-15T02:56:47;8.40;98.50
73360;DHT22;63092;43.582;19.528;2023-04-15T02:59:13;8.30;98.70
73360;DHT22;63092;43.582;19.528;2023-04-15T03:01:38;8.20;98.70
73360;DHT22;63092;43.582;19.528;2023-04-15T03:04:04;8.30;98.60
73360;DHT22;63092;43.582;19.528;2023-04-15T03:06:32;8.20;98.90
73360;DHT22;63092;43.582;19.528;2023-04-15T03:08:57;8.30;99.00
73360;DHT22;63092;43.582;19.528;2023-04-15T03:11:24;7.90;99.90
73360;DHT22;63092;43.582;19.528;2023-04-15T03:13:51;7.50;99.90
73360;DHT22;63092;43.582;19.528;2023-04-15T03:16:17;7.70;99.90
73360;DHT22;63092;43.582;19.528;2023-04-15T03:18:43;7.40;99.90
73360;DHT22;63092;43.582;19.528;2023-04-15T03:21:08;7.40;99.90
73360;DHT22;63092;43.582;19.528;2023-04-15T03:23:34;7.40;99.90
73360;DHT22;63092;43.582;19.528;2023-04-15T03:26:03;7.30;99.90
73360;DHT22;63092;43.582;19.528;2023-04-15T03:28:30;7.20;99.90
73360;DHT22;63092;43.582;19.528;2023-04-15T03:30:57;7.10;99.90
73360;DHT22;63092;43.582;19.528;2023-04-15T03:33:23;7.10;99.90
73360;DHT22;63092;43.582;19.528;2023-04-15T03:35:50;7.10;99.90
73360;DHT22;63092;43.582;19.528;2023-04-15T03:38:16;7.00;99.90
73360;DHT22;63092;43.582;19.528;2023-04-15T03:40:42;6.80;99.90
73360;DHT22;63092;43.582;19.528;2023-04-15T03:43:08;6.80;99.90
73360;DHT22;63092;43.582;19.528;2023-04-15T03:45:34;7.00;99.90
73360;DHT22;63092;43.582;19.528;2023-04-15T03:48:00;7.10;99.90
73360;DHT22;63092;43.582;19.528;2023-04-15T03:50:25;7.10;99.90
73360;DHT22;63092;43.582;19.528;2023-04-15T03:52:52;7.20;99.90
73360;DHT22;63092;43.582;19.528;2023-04-15T03:55:18;7.30;99.90
73360;DHT22;63092;43.582;19.528;2023-04-15T03:57:44;7.30;99.90
73360;DHT22;63092;43.582;19.528;2023-04-15T04:00:11;7.10;99.90
73360;DHT22;63092;43.582;19.528;2023-04-15T04:02:36;7.30;99.90
73360;DHT22;63092;43.582;19.528;2023-04-15T04:05:02;7.40;99.90
73360;DHT22;63092;43.582;19.528;2023-04-15T04:07:28;7.30;99.90
73360;DHT22;63092;43.582;19.528;2023-04-15T04:09:56;7.40;99.90
73360;DHT22;63092;43.582;19.528;2023-04-15T04:12:22;7.20;99.90
73360;DHT22;63092;43.582;19.528;2023-04-15T04:14:47;7.30;99.90
73360;DHT22;63092;43.582;19.528;2023-04-15T04:17:13;7.30;99.90
73360;DHT22;63092;43.582;19.528;2023-04-15T04:19:39;7.20;99.90
73360;DHT22;63092;43.582;19.528;2023-04-15T04:22:04;7.30;99.90
73360;DHT22;63092;43.582;19.528;2023-04-15T04:24:30;7.20;99.90
73360;DHT22;63092;43.582;19.528;2023-04-15T04:26:56;7.30;99.90
73360;DHT22;63092;43.582;19.528;2023-04-15T04:29:22;7.20;99.90
73360;DHT22;63092;43.582;19.528;2023-04-15T04:31:48;7.20;99.90
73360;DHT22;63092;43.582;19.528;2023-04-15T04:34:15;7.30;99.90
73360;DHT22;63092;43.582;19.528;2023-04-15T04:36:40;7.20;99.90
73360;DHT22;63092;43.582;19.528;2023-04-15T04:39:06;7.30;99.90
73360;DHT22;63092;43.582;19.528;2023-04-15T04:41:32;7.40;99.90
73360;DHT22;63092;43.582;19.528;2023-04-15T04:43:58;7.50;99.90
73360;DHT22;63092;43.582;19.528;2023-04-15T04:46:24;7.60;99.90
73360;DHT22;63092;43.582;19.528;2023-04-15T04:48:49;7.70;99.90
73360;DHT22;63092;43.582;19.528;2023-04-15T04:51:15;7.80;99.90
73360;DHT22;63092;43.582;19.528;2023-04-15T04:53:41;8.00;99.90
73360;DHT22;63092;43.582;19.528;2023-04-15T04:56:08;8.00;99.90
73360;DHT22;63092;43.582;19.528;2023-04-15T04:58:33;8.10;99.90
73360;DHT22;63092;43.582;19.528;2023-04-15T05:00:59;8.20;99.90
73360;DHT22;63092;43.582;19.528;2023-04-15T05:03:25;8.20;99.90
73360;DHT22;63092;43.582;19.528;2023-04-15T05:05:51;8.20;99.90
73360;DHT22;63092;43.582;19.528;2023-04-15T05:08:17;8.30;99.90
73360;DHT22;63092;43.582;19.528;2023-04-15T05:10:43;8.30;99.80
73360;DHT22;63092;43.582;19.528;2023-04-15T05:13:09;8.30;99.90
73360;DHT22;63092;43.582;19.528;2023-04-15T05:15:34;8.30;99.90
73360;DHT22;63092;43.582;19.528;2023-04-15T05:18:01;8.40;99.90
73360;DHT22;63092;43.582;19.528;2023-04-15T05:20:27;8.10;99.90
73360;DHT22;63092;43.582;19.528;2023-04-15T05:22:53;8.00;99.90
73360;DHT22;63092;43.582;19.528;2023-04-15T05:25:19;7.90;99.90
73360;DHT22;63092;43.582;19.528;2023-04-15T05:27:45;7.80;99.90
73360;DHT22;63092;43.582;19.528;2023-04-15T05:30:11;7.80;99.90
73360;DHT22;63092;43.582;19.528;2023-04-15T05:32:37;7.80;99.90
73360;DHT22;63092;43.582;19.528;2023-04-15T05:35:03;7.80;99.90
73360;DHT22;63092;43.582;19.528;2023-04-15T05:37:29;7.80;99.90
73360;DHT22;63092;43.582;19.528;2023-04-15T05:39:55;7.90;99.90
73360;DHT22;63092;43.582;19.528;2023-04-15T05:42:21;7.90;99.90
73360;DHT22;63092;43.582;19.528;2023-04-15T05:44:47;8.10;99.90
73360;DHT22;63092;43.582;19.528;2023-04-15T05:47:12;8.20;99.90
73360;DHT22;63092;43.582;19.528;2023-04-15T05:49:38;8.10;99.90
73360;DHT22;63092;43.582;19.528;2023-04-15T05:52:04;8.10;99.90
73360;DHT22;63092;43.582;19.528;2023-04-15T05:54:30;7.90;99.90
73360;DHT22;63092;43.582;19.528;2023-04-15T05:56:56;8.00;99.90
73360;DHT22;63092;43.582;19.528;2023-04-15T05:59:22;7.90;99.90
73360;DHT22;63092;43.582;19.528;2023-04-15T06:01:48;8.10;99.90
73360;DHT22;63092;43.582;19.528;2023-04-15T06:04:14;8.40;99.90
73360;DHT22;63092;43.582;19.528;2023-04-15T06:06:41;8.50;99.50
73360;DHT22;63092;43.582;19.528;2023-04-15T06:09:07;8.70;99.10
73360;DHT22;63092;43.582;19.528;2023-04-15T06:11:32;8.80;98.90
73360;DHT22;63092;43.582;19.528;2023-04-15T06:13:58;9.10;98.80
73360;DHT22;63092;43.582;19.528;2023-04-15T06:16:24;9.30;98.40
73360;DHT22;63092;43.582;19.528;2023-04-15T06:18:50;9.50;98.10
73360;DHT22;63092;43.582;19.528;2023-04-15T06:21:16;9.60;97.70
73360;DHT22;63092;43.582;19.528;2023-04-15T06:23:42;9.60;97.50
73360;DHT22;63092;43.582;19.528;2023-04-15T06:26:07;9.70;97.20
73360;DHT22;63092;43.582;19.528;2023-04-15T06:28:33;9.90;97.70
73360;DHT22;63092;43.582;19.528;2023-04-15T06:30:59;10.00;96.70
73360;DHT22;63092;43.582;19.528;2023-04-15T06:33:25;10.10;96.50
73360;DHT22;63092;43.582;19.528;2023-04-15T06:35:51;10.40;95.20
73360;DHT22;63092;43.582;19.528;2023-04-15T06:38:17;10.50;94.90
73360;DHT22;63092;43.582;19.528;2023-04-15T06:40:43;10.70;94.40
73360;DHT22;63092;43.582;19.528;2023-04-15T06:43:09;10.80;93.70
73360;DHT22;63092;43.582;19.528;2023-04-15T06:45:35;10.90;92.80
73360;DHT22;63092;43.582;19.528;2023-04-15T06:48:00;11.00;93.60
73360;DHT22;63092;43.582;19.528;2023-04-15T06:50:26;11.20;92.60
73360;DHT22;63092;43.582;19.528;2023-04-15T06:52:54;11.30;92.30
73360;DHT22;63092;43.582;19.528;2023-04-15T06:55:20;11.30;91.00
73360;DHT22;63092;43.582;19.528;2023-04-15T06:57:46;11.50;91.70
73360;DHT22;63092;43.582;19.528;2023-04-15T07:00:12;11.40;90.70
73360;DHT22;63092;43.582;19.528;2023-04-15T07:02:38;11.30;90.90
73360;DHT22;63092;43.582;19.528;2023-04-15T07:05:05;11.30;90.80
73360;DHT22;63092;43.582;19.528;2023-04-15T07:07:31;11.20;91.10
73360;DHT22;63092;43.582;19.528;2023-04-15T07:09:57;11.30;91.40
73360;DHT22;63092;43.582;19.528;2023-04-15T07:12:22;11.40;90.60
73360;DHT22;63092;43.582;19.528;2023-04-15T07:14:48;11.40;90.60
73360;DHT22;63092;43.582;19.528;2023-04-15T07:17:14;11.40;90.30
73360;DHT22;63092;43.582;19.528;2023-04-15T07:19:40;11.50;90.10
73360;DHT22;63092;43.582;19.528;2023-04-15T07:22:06;11.50;90.00
73360;DHT22;63092;43.582;19.528;2023-04-15T07:24:32;11.50;89.50
73360;DHT22;63092;43.582;19.528;2023-04-15T07:26:58;11.60;89.90
73360;DHT22;63092;43.582;19.528;2023-04-15T07:29:24;11.70;89.90
73360;DHT22;63092;43.582;19.528;2023-04-15T07:31:50;11.70;89.90
73360;DHT22;63092;43.582;19.528;2023-04-15T07:34:17;11.80;90.60
73360;DHT22;63092;43.582;19.528;2023-04-15T07:36:43;11.80;89.50
73360;DHT22;63092;43.582;19.528;2023-04-15T07:39:09;11.80;86.40
73360;DHT22;63092;43.582;19.528;2023-04-15T07:41:34;12.10;85.30
73360;DHT22;63092;43.582;19.528;2023-04-15T07:44:00;12.30;85.00
73360;DHT22;63092;43.582;19.528;2023-04-15T07:46:26;12.50;82.30
73360;DHT22;63092;43.582;19.528;2023-04-15T07:48:53;12.70;80.50
73360;DHT22;63092;43.582;19.528;2023-04-15T07:51:19;12.80;78.70
73360;DHT22;63092;43.582;19.528;2023-04-15T07:53:46;12.90;78.90
73360;DHT22;63092;43.582;19.528;2023-04-15T07:56:13;13.00;78.20
73360;DHT22;63092;43.582;19.528;2023-04-15T07:58:38;13.20;77.70
73360;DHT22;63092;43.582;19.528;2023-04-15T08:01:04;13.30;77.60
73360;DHT22;63092;43.582;19.528;2023-04-15T08:03:31;13.50;78.60
73360;DHT22;63092;43.582;19.528;2023-04-15T08:05:57;13.60;76.20
73360;DHT22;63092;43.582;19.528;2023-04-15T08:08:23;13.50;75.00
73360;DHT22;63092;43.582;19.528;2023-04-15T08:10:49;13.50;73.80
73360;DHT22;63092;43.582;19.528;2023-04-15T08:13:15;13.50;72.90
73360;DHT22;63092;43.582;19.528;2023-04-15T08:15:41;13.50;73.20
73360;DHT22;63092;43.582;19.528;2023-04-15T08:18:07;13.50;73.90
73360;DHT22;63092;43.582;19.528;2023-04-15T08:20:33;13.60;75.10
73360;DHT22;63092;43.582;19.528;2023-04-15T08:22:59;13.50;74.60
73360;DHT22;63092;43.582;19.528;2023-04-15T08:25:25;13.60;75.80
73360;DHT22;63092;43.582;19.528;2023-04-15T08:27:54;13.60;74.40
73360;DHT22;63092;43.582;19.528;2023-04-15T08:30:20;13.60;73.90
73360;DHT22;63092;43.582;19.528;2023-04-15T08:32:46;13.60;74.50
73360;DHT22;63092;43.582;19.528;2023-04-15T08:35:12;13.50;74.80
73360;DHT22;63092;43.582;19.528;2023-04-15T08:37:38;13.50;76.50
73360;DHT22;63092;43.582;19.528;2023-04-15T08:40:04;13.50;76.90
73360;DHT22;63092;43.582;19.528;2023-04-15T08:42:31;13.60;76.30
73360;DHT22;63092;43.582;19.528;2023-04-15T08:45:03;13.60;75.40
73360;DHT22;63092;43.582;19.528;2023-04-15T08:47:29;13.60;75.00
73360;DHT22;63092;43.582;19.528;2023-04-15T08:49:58;13.70;75.40
73360;DHT22;63092;43.582;19.528;2023-04-15T08:52:25;13.70;72.30
73360;DHT22;63092;43.582;19.528;2023-04-15T08:54:55;13.80;72.80
73360;DHT22;63092;43.582;19.528;2023-04-15T08:57:25;13.80;71.50
73360;DHT22;63092;43.582;19.528;2023-04-15T08:59:54;13.90;71.50
73360;DHT22;63092;43.582;19.528;2023-04-15T09:02:20;14.00;73.10
73360;DHT22;63092;43.582;19.528;2023-04-15T09:04:46;14.10;70.70
73360;DHT22;63092;43.582;19.528;2023-04-15T09:07:12;14.30;70.80
73360;DHT22;63092;43.582;19.528;2023-04-15T09:09:38;14.40;70.50
73360;DHT22;63092;43.582;19.528;2023-04-15T09:12:07;14.50;69.20
73360;DHT22;63092;43.582;19.528;2023-04-15T09:14:33;14.60;68.10
73360;DHT22;63092;43.582;19.528;2023-04-15T09:17:01;14.60;67.90
73360;DHT22;63092;43.582;19.528;2023-04-15T09:19:27;14.60;66.20
73360;DHT22;63092;43.582;19.528;2023-04-15T09:21:55;14.60;65.90
73360;DHT22;63092;43.582;19.528;2023-04-15T09:24:24;14.60;65.30
73360;DHT22;63092;43.582;19.528;2023-04-15T09:26:54;14.60;64.60
73360;DHT22;63092;43.582;19.528;2023-04-15T09:29:25;14.60;65.30
73360;DHT22;63092;43.582;19.528;2023-04-15T09:31:51;14.70;64.40
73360;DHT22;63092;43.582;19.528;2023-04-15T09:34:18;14.70;64.70
73360;DHT22;63092;43.582;19.528;2023-04-15T09:39:12;14.80;63.10
73360;DHT22;63092;43.582;19.528;2023-04-15T09:41:39;14.90;63.20
73360;DHT22;63092;43.582;19.528;2023-04-15T09:44:05;14.80;63.30
73360;DHT22;63092;43.582;19.528;2023-04-15T09:46:44;14.70;62.90
73360;DHT22;63092;43.582;19.528;2023-04-15T09:49:11;14.70;63.00
73360;DHT22;63092;43.582;19.528;2023-04-15T09:51:38;14.70;62.50
73360;DHT22;63092;43.582;19.528;2023-04-15T09:54:04;15.00;61.40
73360;DHT22;63092;43.582;19.528;2023-04-15T09:56:37;15.10;57.90
73360;DHT22;63092;43.582;19.528;2023-04-15T09:59:07;15.20;58.10
73360;DHT22;63092;43.582;19.528;2023-04-15T10:01:33;15.30;56.90
73360;DHT22;63092;43.582;19.528;2023-04-15T10:04:03;15.70;55.20
73360;DHT22;63092;43.582;19.528;2023-04-15T10:06:29;15.80;54.20
73360;DHT22;63092;43.582;19.528;2023-04-15T10:08:57;16.20;54.20
73360;DHT22;63092;43.582;19.528;2023-04-15T10:11:25;16.40;54.80
73360;DHT22;63092;43.582;19.528;2023-04-15T10:13:52;16.00;53.30
73360;DHT22;63092;43.582;19.528;2023-04-15T10:16:19;15.90;54.00
73360;DHT22;63092;43.582;19.528;2023-04-15T10:18:50;15.90;56.40
73360;DHT22;63092;43.582;19.528;2023-04-15T10:21:20;16.30;57.10
73360;DHT22;63092;43.582;19.528;2023-04-15T10:26:15;16.80;54.90
73360;DHT22;63092;43.582;19.528;2023-04-15T10:28:42;16.90;54.50
73360;DHT22;63092;43.582;19.528;2023-04-15T10:31:11;17.10;54.70
73360;DHT22;63092;43.582;19.528;2023-04-15T10:33:38;17.00;54.70
73360;DHT22;63092;43.582;19.528;2023-04-15T10:36:05;16.70;54.60
73360;DHT22;63092;43.582;19.528;2023-04-15T10:38:40;16.70;54.40
73360;DHT22;63092;43.582;19.528;2023-04-15T10:41:26;16.70;56.00
73360;DHT22;63092;43.582;19.528;2023-04-15T10:44:03;16.70;54.30
73360;DHT22;63092;43.582;19.528;2023-04-15T10:46:45;16.60;53.90
73360;DHT22;63092;43.582;19.528;2023-04-15T10:49:16;16.90;55.20
73360;DHT22;63092;43.582;19.528;2023-04-15T10:52:07;16.80;53.30
73360;DHT22;63092;43.582;19.528;2023-04-15T10:54:33;16.70;53.80
73360;DHT22;63092;43.582;19.528;2023-04-15T10:59:30;16.80;54.30
73360;DHT22;63092;43.582;19.528;2023-04-15T11:02:00;16.90;52.50
73360;DHT22;63092;43.582;19.528;2023-04-15T11:07:39;17.30;52.60
73360;DHT22;63092;43.582;19.528;2023-04-15T11:12:50;17.70;51.00
73360;DHT22;63092;43.582;19.528;2023-04-15T11:15:39;17.60;50.40
73360;DHT22;63092;43.582;19.528;2023-04-15T11:20:35;17.70;50.00
73360;DHT22;63092;43.582;19.528;2023-04-15T11:23:01;17.90;49.50
73360;DHT22;63092;43.582;19.528;2023-04-15T11:25:31;18.00;49.10
73360;DHT22;63092;43.582;19.528;2023-04-15T11:27:59;18.10;48.90
73360;DHT22;63092;43.582;19.528;2023-04-15T11:30:28;18.00;48.30
73360;DHT22;63092;43.582;19.528;2023-04-15T11:33:08;17.90;48.10
73360;DHT22;63092;43.582;19.528;2023-04-15T11:35:34;18.20;48.70
73360;DHT22;63092;43.582;19.528;2023-04-15T11:38:04;18.30;48.00
73360;DHT22;63092;43.582;19.528;2023-04-15T11:40:31;18.30;47.90
73360;DHT22;63092;43.582;19.528;2023-04-15T11:43:12;18.50;48.70
73360;DHT22;63092;43.582;19.528;2023-04-15T11:48:17;18.70;47.80
73360;DHT22;63092;43.582;19.528;2023-04-15T11:50:44;18.70;46.00
73360;DHT22;63092;43.582;19.528;2023-04-15T11:53:12;18.60;46.10
73360;DHT22;63092;43.582;19.528;2023-04-15T11:55:47;18.70;46.30
73360;DHT22;63092;43.582;19.528;2023-04-15T11:58:21;18.50;47.20
73360;DHT22;63092;43.582;19.528;2023-04-15T12:00:49;18.60;46.20
73360;DHT22;63092;43.582;19.528;2023-04-15T12:03:30;18.60;46.50
73360;DHT22;63092;43.582;19.528;2023-04-15T12:09:14;18.60;46.20
73360;DHT22;63092;43.582;19.528;2023-04-15T12:11:55;18.60;46.60
73360;DHT22;63092;43.582;19.528;2023-04-15T12:14:25;18.50;47.20
73360;DHT22;63092;43.582;19.528;2023-04-15T12:16:54;18.80;47.70
73360;DHT22;63092;43.582;19.528;2023-04-15T12:19:40;18.90;46.90
73360;DHT22;63092;43.582;19.528;2023-04-15T12:22:11;18.90;46.10
73360;DHT22;63092;43.582;19.528;2023-04-15T12:24:38;19.10;46.00
73360;DHT22;63092;43.582;19.528;2023-04-15T12:27:09;18.80;46.20
73360;DHT22;63092;43.582;19.528;2023-04-15T12:29:37;19.00;46.20
73360;DHT22;63092;43.582;19.528;2023-04-15T12:32:11;18.80;45.50
73360;DHT22;63092;43.582;19.528;2023-04-15T12:37:09;18.40;46.50
73360;DHT22;63092;43.582;19.528;2023-04-15T12:39:37;18.60;47.30
73360;DHT22;63092;43.582;19.528;2023-04-15T12:42:04;18.60;47.60
73360;DHT22;63092;43.582;19.528;2023-04-15T12:44:32;18.50;47.20
73360;DHT22;63092;43.582;19.528;2023-04-15T12:46:58;18.60;47.30
73360;DHT22;63092;43.582;19.528;2023-04-15T12:49:25;18.30;47.20
73360;DHT22;63092;43.582;19.528;2023-04-15T12:51:55;18.00;47.90
73360;DHT22;63092;43.582;19.528;2023-04-15T12:54:21;17.90;47.00
73360;DHT22;63092;43.582;19.528;2023-04-15T12:56:48;17.70;48.70
73360;DHT22;63092;43.582;19.528;2023-04-15T12:59:16;17.50;47.90
73360;DHT22;63092;43.582;19.528;2023-04-15T13:01:45;17.30;48.50
73360;DHT22;63092;43.582;19.528;2023-04-15T13:04:11;17.40;48.40
73360;DHT22;63092;43.582;19.528;2023-04-15T13:06:37;17.70;48.60
73360;DHT22;63092;43.582;19.528;2023-04-15T13:09:03;17.70;49.00
73360;DHT22;63092;43.582;19.528;2023-04-15T13:11:30;17.80;49.10
73360;DHT22;63092;43.582;19.528;2023-04-15T13:14:02;17.90;47.90
73360;DHT22;63092;43.582;19.528;2023-04-15T13:16:28;18.10;46.70
73360;DHT22;63092;43.582;19.528;2023-04-15T13:18:54;18.10;47.50
73360;DHT22;63092;43.582;19.528;2023-04-15T13:21:19;18.10;47.50
73360;DHT22;63092;43.582;19.528;2023-04-15T13:23:45;18.10;46.20
73360;DHT22;63092;43.582;19.528;2023-04-15T13:26:11;18.40;46.20
73360;DHT22;63092;43.582;19.528;2023-04-15T13:28:38;18.40;45.80
73360;DHT22;63092;43.582;19.528;2023-04-15T13:31:05;18.30;46.10
73360;DHT22;63092;43.582;19.528;2023-04-15T13:33:30;18.20;46.10
73360;DHT22;63092;43.582;19.528;2023-04-15T13:35:56;18.10;44.90
73360;DHT22;63092;43.582;19.528;2023-04-15T13:38:23;17.90;44.30
73360;DHT22;63092;43.582;19.528;2023-04-15T13:40:50;17.60;44.50
73360;DHT22;63092;43.582;19.528;2023-04-15T13:43:15;17.60;45.90
73360;DHT22;63092;43.582;19.528;2023-04-15T13:45:42;17.50;46.00
73360;DHT22;63092;43.582;19.528;2023-04-15T13:48:08;17.60;45.80
73360;DHT22;63092;43.582;19.528;2023-04-15T13:50:34;17.50;45.40
73360;DHT22;63092;43.582;19.528;2023-04-15T13:53:00;17.70;44.50
73360;DHT22;63092;43.582;19.528;2023-04-15T13:55:26;17.80;44.50
73360;DHT22;63092;43.582;19.528;2023-04-15T13:57:52;18.00;43.30
73360;DHT22;63092;43.582;19.528;2023-04-15T14:00:18;18.10;43.30
73360;DHT22;63092;43.582;19.528;2023-04-15T14:02:44;18.00;42.60
73360;DHT22;63092;43.582;19.528;2023-04-15T14:05:10;18.20;42.00
73360;DHT22;63092;43.582;19.528;2023-04-15T14:07:36;18.30;41.40
73360;DHT22;63092;43.582;19.528;2023-04-15T14:10:02;18.30;41.60
73360;DHT22;63092;43.582;19.528;2023-04-15T14:12:28;18.40;41.60
73360;DHT22;63092;43.582;19.528;2023-04-15T14:14:54;18.20;42.00
73360;DHT22;63092;43.582;19.528;2023-04-15T14:17:19;18.00;42.40
73360;DHT22;63092;43.582;19.528;2023-04-15T14:19:45;17.70;43.10
73360;DHT22;63092;43.582;19.528;2023-04-15T14:22:11;17.70;43.50
73360;DHT22;63092;43.582;19.528;2023-04-15T14:24:38;17.70;44.60
73360;DHT22;63092;43.582;19.528;2023-04-15T14:27:06;17.80;45.20
73360;DHT22;63092;43.582;19.528;2023-04-15T14:29:33;17.60;47.30
73360;DHT22;63092;43.582;19.528;2023-04-15T14:31:59;17.50;47.20
73360;DHT22;63092;43.582;19.528;2023-04-15T14:34:25;17.50;47.00
73360;DHT22;63092;43.582;19.528;2023-04-15T14:36:51;17.60;47.20
73360;DHT22;63092;43.582;19.528;2023-04-15T14:39:20;17.40;47.20
73360;DHT22;63092;43.582;19.528;2023-04-15T14:41:46;17.40;47.40
73360;DHT22;63092;43.582;19.528;2023-04-15T14:44:12;17.60;47.60
73360;DHT22;63092;43.582;19.528;2023-04-15T14:46:38;17.60;46.90
73360;DHT22;63092;43.582;19.528;2023-04-15T14:49:05;17.70;46.80
73360;DHT22;63092;43.582;19.528;2023-04-15T14:51:31;17.70;47.10
73360;DHT22;63092;43.582;19.528;2023-04-15T14:53:57;17.70;46.70
73360;DHT22;63092;43.582;19.528;2023-04-15T14:56:23;17.60;46.70
73360;DHT22;63092;43.582;19.528;2023-04-15T14:58:48;17.50;47.00
73360;DHT22;63092;43.582;19.528;2023-04-15T15:01:17;17.30;47.10
73360;DHT22;63092;43.582;19.528;2023-04-15T15:03:43;17.20;47.10
73360;DHT22;63092;43.582;19.528;2023-04-15T15:06:09;17.30;47.50
73360;DHT22;63092;43.582;19.528;2023-04-15T15:08:35;17.40;47.10
73360;DHT22;63092;43.582;19.528;2023-04-15T15:11:02;17.60;47.10
73360;DHT22;63092;43.582;19.528;2023-04-15T15:13:27;17.50;46.90
73360;DHT22;63092;43.582;19.528;2023-04-15T15:15:54;17.70;47.30
73360;DHT22;63092;43.582;19.528;2023-04-15T15:18:20;17.80;46.80
73360;DHT22;63092;43.582;19.528;2023-04-15T15:20:46;17.90;46.50
73360;DHT22;63092;43.582;19.528;2023-04-15T15:23:12;18.10;46.50
73360;DHT22;63092;43.582;19.528;2023-04-15T15:25:38;18.10;46.90
73360;DHT22;63092;43.582;19.528;2023-04-15T15:28:05;18.30;47.00
73360;DHT22;63092;43.582;19.528;2023-04-15T15:30:31;18.10;46.70
73360;DHT22;63092;43.582;19.528;2023-04-15T15:32:56;18.00;47.50
73360;DHT22;63092;43.582;19.528;2023-04-15T15:35:22;17.60;48.80
73360;DHT22;63092;43.582;19.528;2023-04-15T15:37:48;17.60;48.70
73360;DHT22;63092;43.582;19.528;2023-04-15T15:40:14;17.50;49.40
73360;DHT22;63092;43.582;19.528;2023-04-15T15:42:39;17.10;49.30
73360;DHT22;63092;43.582;19.528;2023-04-15T15:45:06;17.30;49.50
73360;DHT22;63092;43.582;19.528;2023-04-15T15:47:32;17.30;49.60
73360;DHT22;63092;43.582;19.528;2023-04-15T15:49:59;17.20;49.20